sensor_id;sensor_type;location;lat;lon;timestamp;pressure;altitude;pressure_sealevel;temperature;humidity
15634;BME280;14654;48.898;8.308;2023-12-20T00:01:26;100417.44;;;6.93;100.00
15634;BME280;14654;48.898;8.308;2023-12-20T00:03:51;100412.28;;;6.93;100.00
15634;BME280;14654;48.898;8.308;2023-12-20T00:06:16;100414.00;;;6.93;100.00
15634;BME280;14654;48.898;8.308;2023-12-20T00:08:42;100404.50;;;6.85;100.00
15634;BME280;14654;48.898;8.308;2023-12-20T00:11:07;100404.47;;;6.82;100.00
15634;BME280;14654;48.898;8.308;2023-12-20T00:13:32;100414.72;;;6.76;100.00
15634;BME280;14654;48.898;8.308;2023-12-20T00:15:58;100401.84;;;6.73;100.00
15634;BME280;14654;48.898;8.308;2023-12-20T00:18:23;100414.66;;;6.70;100.00
15634;BME280;14654;48.898;8.308;2023-12-20T00:20:48;100406.09;;;6.69;100.00
15634;BME280;14654;48.898;8.308;2023-12-20T00:23:14;100414.69;;;6.71;100.00
15634;BME280;14654;48.898;8.308;2023-12-20T00:25:39;100401.84;;;6.75;100.00
15634;BME280;14654;48.898;8.308;2023-12-20T00:28:04;100406.09;;;6.69;100.00
15634;BME280;14654;48.898;8.308;2023-12-20T00:30:30;100411.25;;;6.71;100.00
15634;BME280;14654;48.898;8.308;2023-12-20T00:32:56;100408.66;;;6.71;100.00
15634;BME280;14654;48.898;8.308;2023-12-20T00:35:21;100400.06;;;6.69;100.00
15634;BME280;14654;48.898;8.308;2023-12-20T00:37:46;100403.50;;;6.68;100.00
15634;BME280;14654;48.898;8.308;2023-12-20T00:40:11;100407.78;;;6.67;100.00
15634;BME280;14654;48.898;8.308;2023-12-20T00:42:37;100414.63;;;6.67;100.00
15634;BME280;14654;48.898;8.308;2023-12-20T00:45:03;100421.50;;;6.65;100.00
15634;BME280;14654;48.898;8.308;2023-12-20T00:47:30;100417.19;;;6.65;100.00
15634;BME280;14654;48.898;8.308;2023-12-20T00:49:55;100418.91;;;6.66;100.00
15634;BME280;14654;48.898;8.308;2023-12-20T00:52:21;100418.03;;;6.64;100.00
15634;BME280;14654;48.898;8.308;2023-12-20T00:54:48;100427.44;;;6.61;100.00
15634;BME280;14654;48.898;8.308;2023-12-20T00:57:13;100429.13;;;6.59;100.00
15634;BME280;14654;48.898;8.308;2023-12-20T00:59:38;100426.53;;;6.55;100.00
15634;BME280;14654;48.898;8.308;2023-12-20T01:02:03;100434.25;;;6.55;100.00
15634;BME280;14654;48.898;8.308;2023-12-20T01:04:32;100429.97;;;6.58;100.00
15634;BME280;14654;48.898;8.308;2023-12-20T01:06:57;100436.00;;;6.60;100.00
15634;BME280;14654;48.898;8.308;2023-12-20T01:09:22;100428.22;;;6.52;100.00
15634;BME280;14654;48.898;8.308;2023-12-20T01:11:52;100429.91;;;6.50;100.00
15634;BME280;14654;48.898;8.308;2023-12-20T01:14:17;100425.63;;;6.50;100.00
15634;BME280;14654;48.898;8.308;2023-12-20T01:16:42;100419.66;;;6.53;100.00
15634;BME280;14654;48.898;8.308;2023-12-20T01:19:08;100429.94;;;6.54;100.00
15634;BME280;14654;48.898;8.308;2023-12-20T01:21:33;100412.81;;;6.58;100.00
15634;BME280;14654;48.898;8.308;2023-12-20T01:23:58;100423.13;;;6.58;100.00
15634;BME280;14654;48.898;8.308;2023-12-20T01:26:24;100421.41;;;6.59;100.00
15634;BME280;14654;48.898;8.308;2023-12-20T01:28:49;100413.72;;;6.60;100.00
15634;BME280;14654;48.898;8.308;2023-12-20T01:31:14;100412.88;;;6.61;100.00
15634;BME280;14654;48.898;8.308;2023-12-20T01:33:39;100404.34;;;6.64;100.00
15634;BME280;14654;48.898;8.308;2023-12-20T01:36:05;100395.75;;;6.63;100.00
15634;BME280;14654;48.898;8.308;2023-12-20T01:38:30;100400.00;;;6.61;100.00
15634;BME280;14654;48.898;8.308;2023-12-20T01:40:56;100395.75;;;6.62;100.00
15634;BME280;14654;48.898;8.308;2023-12-20T01:43:21;100404.28;;;6.59;100.00
15634;BME280;14654;48.898;8.308;2023-12-20T01:45:47;100405.97;;;6.54;100.00
15634;BME280;14654;48.898;8.308;2023-12-20T01:48:14;100404.22;;;6.54;100.00
15634;BME280;14654;48.898;8.308;2023-12-20T01:50:41;100402.50;;;6.53;100.00
15634;BME280;14654;48.898;8.308;2023-12-20T01:53:09;100410.25;;;6.55;100.00
15634;BME280;14654;48.898;8.308;2023-12-20T01:55:38;100411.97;;;6.58;100.00
15634;BME280;14654;48.898;8.308;2023-12-20T01:58:05;100406.00;;;6.59;100.00
15634;BME280;14654;48.898;8.308;2023-12-20T02:00:30;100402.56;;;6.61;100.00
15634;BME280;14654;48.898;8.308;2023-12-20T02:02:56;100397.44;;;6.60;100.00
15634;BME280;14654;48.898;8.308;2023-12-20T02:05:25;100399.97;;;6.56;100.00
15634;BME280;14654;48.898;8.308;2023-12-20T02:07:52;100401.63;;;6.51;100.00
15634;BME280;14654;48.898;8.308;2023-12-20T02:10:18;100399.94;;;6.50;100.00
15634;BME280;14654;48.898;8.308;2023-12-20T02:12:43;100393.91;;;6.50;100.00
15634;BME280;14654;48.898;8.308;2023-12-20T02:15:09;100403.34;;;6.49;100.00
15634;BME280;14654;48.898;8.308;2023-12-20T02:17:36;100397.31;;;6.47;100.00
15634;BME280;14654;48.898;8.308;2023-12-20T02:20:03;100397.28;;;6.44;100.00
15634;BME280;14654;48.898;8.308;2023-12-20T02:22:29;100395.59;;;6.46;100.00
15634;BME280;14654;48.898;8.308;2023-12-20T02:24:55;100397.38;;;6.53;100.00
15634;BME280;14654;48.898;8.308;2023-12-20T02:27:21;100401.59;;;6.47;100.00
15634;BME280;14654;48.898;8.308;2023-12-20T02:29:48;100394.72;;;6.46;100.00
15634;BME280;14654;48.898;8.308;2023-12-20T02:32:13;100396.47;;;6.48;100.00
15634;BME280;14654;48.898;8.308;2023-12-20T02:34:39;100393.03;;;6.46;100.00
15634;BME280;14654;48.898;8.308;2023-12-20T02:37:04;100409.34;;;6.50;100.00
15634;BME280;14654;48.898;8.308;2023-12-20T02:39:29;100404.22;;;6.54;100.00
15634;BME280;14654;48.898;8.308;2023-12-20T02:41:55;100394.81;;;6.58;100.00
15634;BME280;14654;48.898;8.308;2023-12-20T02:44:20;100406.81;;;6.54;100.00
15634;BME280;14654;48.898;8.308;2023-12-20T02:46:45;100411.06;;;6.51;100.00
15634;BME280;14654;48.898;8.308;2023-12-20T02:49:11;100414.47;;;6.51;100.00
15634;BME280;14654;48.898;8.308;2023-12-20T02:51:36;100417.06;;;6.51;100.00
15634;BME280;14654;48.898;8.308;2023-12-20T02:54:04;100422.19;;;6.48;100.00
15634;BME280;14654;48.898;8.308;2023-12-20T02:56:29;100424.75;;;6.48;100.00
15634;BME280;14654;48.898;8.308;2023-12-20T02:58:54;100429.91;;;6.48;100.00
15634;BME280;14654;48.898;8.308;2023-12-20T03:01:20;100426.50;;;6.52;100.00
15634;BME280;14654;48.898;8.308;2023-12-20T03:03:45;100429.09;;;6.54;100.00
15634;BME280;14654;48.898;8.308;2023-12-20T03:06:10;100429.09;;;6.55;100.00
15634;BME280;14654;48.898;8.308;2023-12-20T03:08:36;100438.53;;;6.58;100.00
15634;BME280;14654;48.898;8.308;2023-12-20T03:11:02;100435.13;;;6.59;100.00
15634;BME280;14654;48.898;8.308;2023-12-20T03:13:27;100452.25;;;6.55;100.00
15634;BME280;14654;48.898;8.308;2023-12-20T03:15:52;100450.56;;;6.56;100.00
15634;BME280;14654;48.898;8.308;2023-12-20T03:18:18;100441.97;;;6.55;100.00
15634;BME280;14654;48.898;8.308;2023-12-20T03:20:43;100438.53;;;6.55;100.00
15634;BME280;14654;48.898;8.308;2023-12-20T03:23:09;100428.25;;;6.55;100.00
15634;BME280;14654;48.898;8.308;2023-12-20T03:25:34;100414.56;;;6.56;100.00
15634;BME280;14654;48.898;8.308;2023-12-20T03:28:00;100420.53;;;6.55;100.00
15634;BME280;14654;48.898;8.308;2023-12-20T03:30:25;100429.91;;;6.50;100.00
15634;BME280;14654;48.898;8.308;2023-12-20T03:32:50;100432.44;;;6.47;100.00
15634;BME280;14654;48.898;8.308;2023-12-20T03:35:16;100429.03;;;6.46;100.00
15634;BME280;14654;48.898;8.308;2023-12-20T03:37:41;100433.28;;;6.43;100.00
15634;BME280;14654;48.898;8.308;2023-12-20T03:40:06;100434.13;;;6.43;100.00
15634;BME280;14654;48.898;8.308;2023-12-20T03:42:32;100428.13;;;6.43;100.00
15634;BME280;14654;48.898;8.308;2023-12-20T03:44:57;100433.31;;;6.49;100.00
15634;BME280;14654;48.898;8.308;2023-12-20T03:47:22;100432.41;;;6.44;100.00
15634;BME280;14654;48.898;8.308;2023-12-20T03:49:48;100434.09;;;6.40;100.00
15634;BME280;14654;48.898;8.308;2023-12-20T03:52:13;100448.69;;;6.43;100.00
15634;BME280;14654;48.898;8.308;2023-12-20T03:54:40;100437.53;;;6.44;100.00
15634;BME280;14654;48.898;8.308;2023-12-20T03:57:07;100436.69;;;6.43;100.00
15634;BME280;14654;48.898;8.308;2023-12-20T03:59:36;100452.13;;;6.42;100.00
15634;BME280;14654;48.898;8.308;2023-12-20T04:02:02;100453.81;;;6.41;100.00
15634;BME280;14654;48.898;8.308;2023-12-20T04:04:27;100446.97;;;6.42;100.00
15634;BME280;14654;48.898;8.308;2023-12-20T04:06:53;100436.69;;;6.45;100.00
15634;BME280;14654;48.898;8.308;2023-12-20T04:09:18;100447.88;;;6.45;100.00
15634;BME280;14654;48.898;8.308;2023-12-20T04:11:43;100459.00;;;6.43;100.00
15634;BME280;14654;48.898;8.308;2023-12-20T04:14:09;100450.44;;;6.47;100.00
15634;BME280;14654;48.898;8.308;2023-12-20T04:16:35;100448.75;;;6.47;100.00
15634;BME280;14654;48.898;8.308;2023-12-20T04:19:00;100457.34;;;6.49;100.00
15634;BME280;14654;48.898;8.308;2023-12-20T04:21:26;100450.47;;;6.48;100.00
15634;BME280;14654;48.898;8.308;2023-12-20T04:23:51;100456.47;;;6.47;100.00
15634;BME280;14654;48.898;8.308;2023-12-20T04:26:16;100450.47;;;6.48;100.00
15634;BME280;14654;48.898;8.308;2023-12-20T04:28:42;100450.47;;;6.50;100.00
15634;BME280;14654;48.898;8.308;2023-12-20T04:31:07;100459.06;;;6.53;100.00
15634;BME280;14654;48.898;8.308;2023-12-20T04:33:33;100467.63;;;6.51;100.00
15634;BME280;14654;48.898;8.308;2023-12-20T04:35:58;100468.50;;;6.54;100.00
15634;BME280;14654;48.898;8.308;2023-12-20T04:38:23;100476.22;;;6.54;100.00
15634;BME280;14654;48.898;8.308;2023-12-20T04:40:49;100474.50;;;6.52;100.00
15634;BME280;14654;48.898;8.308;2023-12-20T04:43:14;100478.78;;;6.53;100.00
15634;BME280;14654;48.898;8.308;2023-12-20T04:45:39;100474.47;;;6.49;100.00
15634;BME280;14654;48.898;8.308;2023-12-20T04:48:05;100477.06;;;6.53;100.00
15634;BME280;14654;48.898;8.308;2023-12-20T04:50:31;100479.63;;;6.50;100.00
15634;BME280;14654;48.898;8.308;2023-12-20T04:52:56;100474.50;;;6.53;100.00
15634;BME280;14654;48.898;8.308;2023-12-20T04:55:22;100471.03;;;6.51;100.00
15634;BME280;14654;48.898;8.308;2023-12-20T04:57:50;100477.91;;;6.52;100.00
15634;BME280;14654;48.898;8.308;2023-12-20T05:00:15;100480.53;;;6.54;100.00
15634;BME280;14654;48.898;8.308;2023-12-20T05:02:41;100487.41;;;6.55;100.00
15634;BME280;14654;48.898;8.308;2023-12-20T05:05:07;100487.34;;;6.52;100.00
15634;BME280;14654;48.898;8.308;2023-12-20T05:07:32;100482.16;;;6.49;100.00
15634;BME280;14654;48.898;8.308;2023-12-20T05:09:58;100489.94;;;6.52;100.00
15634;BME280;14654;48.898;8.308;2023-12-20T05:12:24;100493.34;;;6.52;100.00
15634;BME280;14654;48.898;8.308;2023-12-20T05:14:49;100493.38;;;6.54;100.00
15634;BME280;14654;48.898;8.308;2023-12-20T05:17:14;100501.06;;;6.51;100.00
15634;BME280;14654;48.898;8.308;2023-12-20T05:19:40;100495.94;;;6.54;100.00
15634;BME280;14654;48.898;8.308;2023-12-20T05:22:05;100489.97;;;6.56;100.00
15634;BME280;14654;48.898;8.308;2023-12-20T05:24:30;100499.38;;;6.54;100.00
15634;BME280;14654;48.898;8.308;2023-12-20T05:26:56;100503.66;;;6.55;100.00
15634;BME280;14654;48.898;8.308;2023-12-20T05:29:21;100499.41;;;6.56;100.00
15634;BME280;14654;48.898;8.308;2023-12-20T05:31:47;100507.97;;;6.58;100.00
15634;BME280;14654;48.898;8.308;2023-12-20T05:34:12;100509.69;;;6.58;100.00
15634;BME280;14654;48.898;8.308;2023-12-20T05:36:37;100509.66;;;6.54;100.00
15634;BME280;14654;48.898;8.308;2023-12-20T05:39:04;100519.94;;;6.53;100.00
15634;BME280;14654;48.898;8.308;2023-12-20T05:41:30;100514.81;;;6.54;100.00
15634;BME280;14654;48.898;8.308;2023-12-20T05:43:56;100526.84;;;6.60;100.00
15634;BME280;14654;48.898;8.308;2023-12-20T05:46:23;100522.56;;;6.58;100.00
15634;BME280;14654;48.898;8.308;2023-12-20T05:48:48;100529.41;;;6.57;100.00
15634;BME280;14654;48.898;8.308;2023-12-20T05:51:14;100525.94;;;6.53;100.00
15634;BME280;14654;48.898;8.308;2023-12-20T05:53:39;100531.94;;;6.54;100.00
15634;BME280;14654;48.898;8.308;2023-12-20T05:56:05;100523.41;;;6.58;100.00
15634;BME280;14654;48.898;8.308;2023-12-20T05:58:31;100518.25;;;6.58;100.00
15634;BME280;14654;48.898;8.308;2023-12-20T06:00:57;100523.41;;;6.58;100.00
15634;BME280;14654;48.898;8.308;2023-12-20T06:03:22;100527.66;;;6.54;100.00
15634;BME280;14654;48.898;8.308;2023-12-20T06:05:48;100532.00;;;6.57;100.00
15634;BME280;14654;48.898;8.308;2023-12-20T06:08:13;100543.13;;;6.58;100.00
15634;BME280;14654;48.898;8.308;2023-12-20T06:10:39;100548.22;;;6.54;100.00
15634;BME280;14654;48.898;8.308;2023-12-20T06:13:05;100550.78;;;6.53;100.00
15634;BME280;14654;48.898;8.308;2023-12-20T06:15:32;100561.91;;;6.52;100.00
15634;BME280;14654;48.898;8.308;2023-12-20T06:17:57;100564.50;;;6.50;100.00
15634;BME280;14654;48.898;8.308;2023-12-20T06:20:22;100567.88;;;6.48;100.00
15634;BME280;14654;48.898;8.308;2023-12-20T06:22:48;100576.47;;;6.48;100.00
15634;BME280;14654;48.898;8.308;2023-12-20T06:25:13;100574.72;;;6.49;100.00
15634;BME280;14654;48.898;8.308;2023-12-20T06:27:38;100581.59;;;6.48;100.00
15634;BME280;14654;48.898;8.308;2023-12-20T06:30:05;100578.19;;;6.52;100.00
15634;BME280;14654;48.898;8.308;2023-12-20T06:32:30;100584.19;;;6.50;100.00
15634;BME280;14654;48.898;8.308;2023-12-20T06:34:55;100582.47;;;6.50;100.00
15634;BME280;14654;48.898;8.308;2023-12-20T06:37:21;100588.38;;;6.45;100.00
15634;BME280;14654;48.898;8.308;2023-12-20T06:39:46;100589.22;;;6.44;100.00
15634;BME280;14654;48.898;8.308;2023-12-20T06:42:12;100591.00;;;6.46;100.00
15634;BME280;14654;48.898;8.308;2023-12-20T06:44:38;100592.72;;;6.49;100.00
15634;BME280;14654;48.898;8.308;2023-12-20T06:47:04;100591.88;;;6.50;100.00
15634;BME280;14654;48.898;8.308;2023-12-20T06:49:29;100590.22;;;6.52;100.00
15634;BME280;14654;48.898;8.308;2023-12-20T06:51:54;100580.72;;;6.48;100.00
15634;BME280;14654;48.898;8.308;2023-12-20T06:54:20;100584.97;;;6.46;100.00
15634;BME280;14654;48.898;8.308;2023-12-20T06:56:45;100601.28;;;6.46;100.00
15634;BME280;14654;48.898;8.308;2023-12-20T06:59:10;100601.31;;;6.49;100.00
15634;BME280;14654;48.898;8.308;2023-12-20T07:01:36;100617.59;;;6.50;100.00
15634;BME280;14654;48.898;8.308;2023-12-20T07:04:01;100624.47;;;6.49;100.00
15634;BME280;14654;48.898;8.308;2023-12-20T07:06:26;100629.53;;;6.45;100.00
15634;BME280;14654;48.898;8.308;2023-12-20T07:08:52;100636.38;;;6.44;100.00
15634;BME280;14654;48.898;8.308;2023-12-20T07:11:17;100635.50;;;6.40;100.00
15634;BME280;14654;48.898;8.308;2023-12-20T07:13:43;100645.66;;;6.34;100.00
15634;BME280;14654;48.898;8.308;2023-12-20T07:16:08;100649.00;;;6.27;100.00
15634;BME280;14654;48.898;8.308;2023-12-20T07:18:33;100657.41;;;6.17;100.00
15634;BME280;14654;48.898;8.308;2023-12-20T07:20:59;100650.41;;;6.08;100.00
15634;BME280;14654;48.898;8.308;2023-12-20T07:23:24;100651.09;;;5.99;100.00
15634;BME280;14654;48.898;8.308;2023-12-20T07:25:50;100652.69;;;5.89;100.00
15634;BME280;14654;48.898;8.308;2023-12-20T07:28:16;100653.41;;;5.80;100.00
15634;BME280;14654;48.898;8.308;2023-12-20T07:30:41;100658.41;;;5.73;100.00
15634;BME280;14654;48.898;8.308;2023-12-20T07:33:06;100660.81;;;5.63;100.00
15634;BME280;14654;48.898;8.308;2023-12-20T07:35:34;100657.25;;;5.57;100.00
15634;BME280;14654;48.898;8.308;2023-12-20T07:37:59;100663.16;;;5.49;100.00
15634;BME280;14654;48.898;8.308;2023-12-20T07:40:25;100666.47;;;5.45;100.00
15634;BME280;14654;48.898;8.308;2023-12-20T07:42:50;100674.06;;;5.39;100.00
15634;BME280;14654;48.898;8.308;2023-12-20T07:45:15;100673.16;;;5.36;100.00
15634;BME280;14654;48.898;8.308;2023-12-20T07:47:41;100675.69;;;5.34;100.00
15634;BME280;14654;48.898;8.308;2023-12-20T07:50:06;100680.78;;;5.31;100.00
15634;BME280;14654;48.898;8.308;2023-12-20T07:52:31;100673.00;;;5.26;100.00
15634;BME280;14654;48.898;8.308;2023-12-20T07:54:57;100684.91;;;5.24;100.00
15634;BME280;14654;48.898;8.308;2023-12-20T07:57:23;100687.41;;;5.21;100.00
15634;BME280;14654;48.898;8.308;2023-12-20T07:59:48;100690.81;;;5.18;100.00
15634;BME280;14654;48.898;8.308;2023-12-20T08:02:14;100693.31;;;5.17;100.00
15634;BME280;14654;48.898;8.308;2023-12-20T08:04:39;100705.28;;;5.16;100.00
15634;BME280;14654;48.898;8.308;2023-12-20T08:07:04;100707.88;;;5.16;100.00
15634;BME280;14654;48.898;8.308;2023-12-20T08:09:29;100709.63;;;5.19;100.00
15634;BME280;14654;48.898;8.308;2023-12-20T08:11:55;100707.13;;;5.22;100.00
15634;BME280;14654;48.898;8.308;2023-12-20T08:14:21;100714.03;;;5.26;100.00
15634;BME280;14654;48.898;8.308;2023-12-20T08:16:46;100717.56;;;5.31;100.00
15634;BME280;14654;48.898;8.308;2023-12-20T08:19:11;100709.84;;;5.30;100.00
15634;BME280;14654;48.898;8.308;2023-12-20T08:21:37;100720.09;;;5.28;100.00
15634;BME280;14654;48.898;8.308;2023-12-20T08:24:03;100716.63;;;5.28;100.00
15634;BME280;14654;48.898;8.308;2023-12-20T08:26:28;100712.34;;;5.27;100.00
15634;BME280;14654;48.898;8.308;2023-12-20T08:28:53;100722.69;;;5.31;100.00
15634;BME280;14654;48.898;8.308;2023-12-20T08:31:19;100719.34;;;5.36;100.00
15634;BME280;14654;48.898;8.308;2023-12-20T08:33:45;100716.88;;;5.40;100.00
15634;BME280;14654;48.898;8.308;2023-12-20T08:36:11;100719.50;;;5.45;100.00
15634;BME280;14654;48.898;8.308;2023-12-20T08:38:36;100722.91;;;5.42;100.00
15634;BME280;14654;48.898;8.308;2023-12-20T08:41:02;100728.03;;;5.42;100.00
15634;BME280;14654;48.898;8.308;2023-12-20T08:43:30;100728.94;;;5.44;100.00
15634;BME280;14654;48.898;8.308;2023-12-20T08:45:55;100738.34;;;5.44;100.00
15634;BME280;14654;48.898;8.308;2023-12-20T08:48:21;100740.03;;;5.43;100.00
15634;BME280;14654;48.898;8.308;2023-12-20T08:50:46;100738.38;;;5.45;100.00
15634;BME280;14654;48.898;8.308;2023-12-20T08:53:13;100732.41;;;5.46;100.00
15634;BME280;14654;48.898;8.308;2023-12-20T08:55:40;100737.75;;;5.59;100.00
15634;BME280;14654;48.898;8.308;2023-12-20T08:58:06;100738.72;;;5.65;100.00
15634;BME280;14654;48.898;8.308;2023-12-20T09:00:33;100734.50;;;5.69;100.00
15634;BME280;14654;48.898;8.308;2023-12-20T09:02:58;100731.19;;;5.75;100.00
15634;BME280;14654;48.898;8.308;2023-12-20T09:05:24;100722.91;;;5.90;100.00
15634;BME280;14654;48.898;8.308;2023-12-20T09:07:50;100730.00;;;6.03;100.00
15634;BME280;14654;48.898;8.308;2023-12-20T09:10:15;100733.53;;;6.10;100.00
15634;BME280;14654;48.898;8.308;2023-12-20T09:12:40;100737.97;;;6.19;100.00
15634;BME280;14654;48.898;8.308;2023-12-20T09:15:07;100731.31;;;6.32;100.00
15634;BME280;14654;48.898;8.308;2023-12-20T09:17:33;100721.97;;;6.37;100.00
15634;BME280;14654;48.898;8.308;2023-12-20T09:19:58;100719.50;;;6.42;100.00
15634;BME280;14654;48.898;8.308;2023-12-20T09:22:25;100717.00;;;6.48;100.00
15634;BME280;14654;48.898;8.308;2023-12-20T09:24:50;100711.97;;;6.55;100.00
15634;BME280;14654;48.898;8.308;2023-12-20T09:27:15;100711.22;;;6.64;100.00
15634;BME280;14654;48.898;8.308;2023-12-20T09:29:41;100711.34;;;6.72;100.00
15634;BME280;14654;48.898;8.308;2023-12-20T09:32:06;100712.31;;;6.80;100.00
15634;BME280;14654;48.898;8.308;2023-12-20T09:34:31;100721.03;;;6.92;100.00
15634;BME280;14654;48.898;8.308;2023-12-20T09:36:57;100717.63;;;6.96;100.00
15634;BME280;14654;48.898;8.308;2023-12-20T09:39:22;100716.88;;;7.05;100.00
15634;BME280;14654;48.898;8.308;2023-12-20T09:42:04;100718.75;;;7.15;100.00
15634;BME280;14654;48.898;8.308;2023-12-20T09:44:30;100724.84;;;7.23;100.00
15634;BME280;14654;48.898;8.308;2023-12-20T09:46:57;100718.88;;;7.26;100.00
15634;BME280;14654;48.898;8.308;2023-12-20T09:49:22;100736.94;;;7.30;100.00
15634;BME280;14654;48.898;8.308;2023-12-20T09:51:50;100731.84;;;7.35;100.00
15634;BME280;14654;48.898;8.308;2023-12-20T09:54:19;100734.47;;;7.38;100.00
15634;BME280;14654;48.898;8.308;2023-12-20T09:56:45;100733.63;;;7.42;100.00
15634;BME280;14654;48.898;8.308;2023-12-20T09:59:11;100731.09;;;7.45;100.00
15634;BME280;14654;48.898;8.308;2023-12-20T10:01:38;100729.41;;;7.47;100.00
15634;BME280;14654;48.898;8.308;2023-12-20T10:04:06;100720.84;;;7.50;100.00
15634;BME280;14654;48.898;8.308;2023-12-20T10:06:43;100730.34;;;7.54;100.00
15634;BME280;14654;48.898;8.308;2023-12-20T10:09:10;100727.81;;;7.59;100.00
15634;BME280;14654;48.898;8.308;2023-12-20T10:11:37;100726.16;;;7.64;100.00
15634;BME280;14654;48.898;8.308;2023-12-20T10:14:03;100718.50;;;7.72;100.00
15634;BME280;14654;48.898;8.308;2023-12-20T10:16:29;100722.84;;;7.76;100.00
15634;BME280;14654;48.898;8.308;2023-12-20T10:18:55;100710.84;;;7.78;100.00
15634;BME280;14654;48.898;8.308;2023-12-20T10:21:22;100718.56;;;7.80;100.00
15634;BME280;14654;48.898;8.308;2023-12-20T10:23:48;100714.25;;;7.77;100.00
15634;BME280;14654;48.898;8.308;2023-12-20T10:26:25;100704.81;;;7.77;100.00
15634;BME280;14654;48.898;8.308;2023-12-20T10:28:55;100704.81;;;7.79;100.00
15634;BME280;14654;48.898;8.308;2023-12-20T10:31:27;100697.97;;;7.80;100.00
15634;BME280;14654;48.898;8.308;2023-12-20T10:33:53;100704.81;;;7.79;100.00
15634;BME280;14654;48.898;8.308;2023-12-20T10:36:18;100698.00;;;7.84;100.00
15634;BME280;14654;48.898;8.308;2023-12-20T10:38:44;100703.19;;;7.87;100.00
15634;BME280;14654;48.898;8.308;2023-12-20T10:41:10;100707.50;;;7.88;100.00
15634;BME280;14654;48.898;8.308;2023-12-20T10:43:36;100703.19;;;7.87;100.00
15634;BME280;14654;48.898;8.308;2023-12-20T10:46:03;100702.38;;;7.91;100.00
15634;BME280;14654;48.898;8.308;2023-12-20T10:48:30;100693.78;;;7.94;100.00
15634;BME280;14654;48.898;8.308;2023-12-20T10:50:57;100679.16;;;7.93;100.00
15634;BME280;14654;48.898;8.308;2023-12-20T10:53:24;100681.75;;;7.91;100.00
15634;BME280;14654;48.898;8.308;2023-12-20T10:55:52;100677.47;;;7.93;100.00
15634;BME280;14654;48.898;8.308;2023-12-20T10:58:20;100670.66;;;8.02;100.00
15634;BME280;14654;48.898;8.308;2023-12-20T11:00:50;100666.41;;;8.10;100.00
15634;BME280;14654;48.898;8.308;2023-12-20T11:03:19;100662.97;;;8.08;100.00
15634;BME280;14654;48.898;8.308;2023-12-20T11:06:00;100671.63;;;8.16;100.00
15634;BME280;14654;48.898;8.308;2023-12-20T11:08:35;100665.63;;;8.22;100.00
15634;BME280;14654;48.898;8.308;2023-12-20T11:13:36;100658.78;;;8.22;100.00
15634;BME280;14654;48.898;8.308;2023-12-20T11:16:04;100651.03;;;8.24;100.00
15634;BME280;14654;48.898;8.308;2023-12-20T11:18:31;100656.25;;;8.30;100.00
15634;BME280;14654;48.898;8.308;2023-12-20T11:21:00;100651.13;;;8.38;100.00
15634;BME280;14654;48.898;8.308;2023-12-20T11:23:27;100648.56;;;8.41;100.00
15634;BME280;14654;48.898;8.308;2023-12-20T11:25:53;100652.00;;;8.43;100.00
15634;BME280;14654;48.898;8.308;2023-12-20T11:28:26;100656.31;;;8.43;100.00
15634;BME280;14654;48.898;8.308;2023-12-20T11:30:53;100657.16;;;8.40;100.00
15634;BME280;14654;48.898;8.308;2023-12-20T11:33:23;100653.69;;;8.36;100.00
15634;BME280;14654;48.898;8.308;2023-12-20T11:35:50;100662.31;;;8.37;100.00
15634;BME280;14654;48.898;8.308;2023-12-20T11:38:15;100658.88;;;8.38;100.00
15634;BME280;14654;48.898;8.308;2023-12-20T11:40:42;100665.75;;;8.36;100.00
15634;BME280;14654;48.898;8.308;2023-12-20T11:43:08;100656.25;;;8.30;100.00
15634;BME280;14654;48.898;8.308;2023-12-20T11:45:34;100654.53;;;8.29;100.00
15634;BME280;14654;48.898;8.308;2023-12-20T11:48:02;100651.91;;;8.28;100.00
15634;BME280;14654;48.898;8.308;2023-12-20T11:50:28;100649.38;;;8.29;100.00
15634;BME280;14654;48.898;8.308;2023-12-20T11:52:56;100646.78;;;8.29;100.00
15634;BME280;14654;48.898;8.308;2023-12-20T11:55:22;100652.81;;;8.28;100.00
15634;BME280;14654;48.898;8.308;2023-12-20T11:57:49;100661.38;;;8.22;100.00
15634;BME280;14654;48.898;8.308;2023-12-20T12:00:15;100653.53;;;8.13;100.00
15634;BME280;14654;48.898;8.308;2023-12-20T12:02:41;100653.53;;;8.13;100.00
15634;BME280;14654;48.898;8.308;2023-12-20T12:05:07;100658.66;;;8.05;100.00
15634;BME280;14654;48.898;8.308;2023-12-20T12:07:33;100656.97;;;8.11;100.00
15634;BME280;14654;48.898;8.308;2023-12-20T12:09:59;100646.69;;;8.15;100.00
15634;BME280;14654;48.898;8.308;2023-12-20T12:12:24;100645.00;;;8.16;100.00
15634;BME280;14654;48.898;8.308;2023-12-20T12:14:52;100648.41;;;8.16;100.00
15634;BME280;14654;48.898;8.308;2023-12-20T12:17:18;100641.56;;;8.23;100.00
15634;BME280;14654;48.898;8.308;2023-12-20T12:19:43;100634.72;;;8.23;100.00
15634;BME280;14654;48.898;8.308;2023-12-20T12:22:10;100636.44;;;8.21;100.00
15634;BME280;14654;48.898;8.308;2023-12-20T12:24:38;100647.56;;;8.17;100.00
15634;BME280;14654;48.898;8.308;2023-12-20T12:27:06;100639.81;;;8.14;100.00
15634;BME280;14654;48.898;8.308;2023-12-20T12:29:32;100633.78;;;8.17;100.00
15634;BME280;14654;48.898;8.308;2023-12-20T12:31:58;100633.78;;;8.09;100.00
15634;BME280;14654;48.898;8.308;2023-12-20T12:34:23;100627.69;;;8.02;100.00
15634;BME280;14654;48.898;8.308;2023-12-20T12:36:48;100624.22;;;7.99;100.00
15634;BME280;14654;48.898;8.308;2023-12-20T12:39:15;100633.66;;;7.97;100.00
15634;BME280;14654;48.898;8.308;2023-12-20T12:41:43;100630.22;;;7.94;100.00
15634;BME280;14654;48.898;8.308;2023-12-20T12:44:08;100617.28;;;7.90;100.00
15634;BME280;14654;48.898;8.308;2023-12-20T12:46:34;100622.41;;;7.87;100.00